sensor_id;sensor_type;location;lat;lon;timestamp;temperature;humidity
54202;DHT22;40108;53.152;5.844;2023-05-10T00:01:05;12.00;97.80
54202;DHT22;40108;53.152;5.844;2023-05-10T00:03:31;12.10;97.90
54202;DHT22;40108;53.152;5.844;2023-05-10T00:05:57;12.00;97.90
54202;DHT22;40108;53.152;5.844;2023-05-10T00:08:23;12.00;97.80
54202;DHT22;40108;53.152;5.844;2023-05-10T00:10:49;12.00;97.90
54202;DHT22;40108;53.152;5.844;2023-05-10T00:13:15;12.00;97.90
54202;DHT22;40108;53.152;5.844;2023-05-10T00:15:40;12.00;97.80
54202;DHT22;40108;53.152;5.844;2023-05-10T00:18:06;12.00;97.90
54202;DHT22;40108;53.152;5.844;2023-05-10T00:20:32;12.00;97.90
54202;DHT22;40108;53.152;5.844;2023-05-10T00:22:57;11.90;97.80
54202;DHT22;40108;53.152;5.844;2023-05-10T00:25:23;11.90;97.80
54202;DHT22;40108;53.152;5.844;2023-05-10T00:27:49;11.90;97.80
54202;DHT22;40108;53.152;5.844;2023-05-10T00:30:15;11.90;97.80
54202;DHT22;40108;53.152;5.844;2023-05-10T00:32:41;11.90;97.80
54202;DHT22;40108;53.152;5.844;2023-05-10T00:35:07;11.80;97.90
54202;DHT22;40108;53.152;5.844;2023-05-10T00:37:33;11.90;97.80
54202;DHT22;40108;53.152;5.844;2023-05-10T00:39:58;11.80;97.80
54202;DHT22;40108;53.152;5.844;2023-05-10T00:42:24;11.90;97.80
54202;DHT22;40108;53.152;5.844;2023-05-10T00:44:50;11.90;97.90
54202;DHT22;40108;53.152;5.844;2023-05-10T00:47:16;11.80;97.90
54202;DHT22;40108;53.152;5.844;2023-05-10T00:49:43;11.80;97.90
54202;DHT22;40108;53.152;5.844;2023-05-10T00:52:09;11.80;97.90
54202;DHT22;40108;53.152;5.844;2023-05-10T00:54:35;11.90;97.90
54202;DHT22;40108;53.152;5.844;2023-05-10T00:57:01;11.90;97.90
54202;DHT22;40108;53.152;5.844;2023-05-10T00:59:27;11.90;97.90
54202;DHT22;40108;53.152;5.844;2023-05-10T01:01:54;11.90;97.90
54202;DHT22;40108;53.152;5.844;2023-05-10T01:04:19;11.90;98.00
54202;DHT22;40108;53.152;5.844;2023-05-10T01:06:51;11.90;97.90
54202;DHT22;40108;53.152;5.844;2023-05-10T01:09:16;11.90;98.00
54202;DHT22;40108;53.152;5.844;2023-05-10T01:11:43;11.90;98.00
54202;DHT22;40108;53.152;5.844;2023-05-10T01:14:09;11.90;98.00
54202;DHT22;40108;53.152;5.844;2023-05-10T01:16:39;11.90;98.00
54202;DHT22;40108;53.152;5.844;2023-05-10T01:19:30;11.90;98.00
54202;DHT22;40108;53.152;5.844;2023-05-10T01:22:02;11.90;98.00
54202;DHT22;40108;53.152;5.844;2023-05-10T01:25:10;11.90;98.00
54202;DHT22;40108;53.152;5.844;2023-05-10T01:30:45;11.90;98.00
54202;DHT22;40108;53.152;5.844;2023-05-10T01:38:47;11.90;98.00
54202;DHT22;40108;53.152;5.844;2023-05-10T01:41:49;11.90;98.00
54202;DHT22;40108;53.152;5.844;2023-05-10T01:44:37;11.80;98.00
54202;DHT22;40108;53.152;5.844;2023-05-10T01:47:17;11.90;98.00
54202;DHT22;40108;53.152;5.844;2023-05-10T01:49:49;11.80;98.00
54202;DHT22;40108;53.152;5.844;2023-05-10T01:52:27;11.90;98.00
54202;DHT22;40108;53.152;5.844;2023-05-10T01:55:00;11.90;98.00
54202;DHT22;40108;53.152;5.844;2023-05-10T01:57:32;11.90;98.00
54202;DHT22;40108;53.152;5.844;2023-05-10T01:59:59;11.90;98.00
54202;DHT22;40108;53.152;5.844;2023-05-10T02:02:27;11.80;98.00
54202;DHT22;40108;53.152;5.844;2023-05-10T02:04:54;11.90;98.00
54202;DHT22;40108;53.152;5.844;2023-05-10T02:07:21;11.90;98.10
54202;DHT22;40108;53.152;5.844;2023-05-10T02:09:48;11.90;98.00
54202;DHT22;40108;53.152;5.844;2023-05-10T02:12:15;11.90;98.10
54202;DHT22;40108;53.152;5.844;2023-05-10T02:14:42;11.90;98.10
54202;DHT22;40108;53.152;5.844;2023-05-10T02:17:09;11.80;98.00
54202;DHT22;40108;53.152;5.844;2023-05-10T02:19:37;11.90;98.00
54202;DHT22;40108;53.152;5.844;2023-05-10T02:22:04;11.80;98.00
54202;DHT22;40108;53.152;5.844;2023-05-10T02:24:32;11.80;98.00
54202;DHT22;40108;53.152;5.844;2023-05-10T02:27:00;11.80;98.00
54202;DHT22;40108;53.152;5.844;2023-05-10T02:29:28;11.80;98.00
54202;DHT22;40108;53.152;5.844;2023-05-10T02:31:54;11.80;98.10
54202;DHT22;40108;53.152;5.844;2023-05-10T02:34:27;11.80;98.10
54202;DHT22;40108;53.152;5.844;2023-05-10T02:36:55;11.80;98.10
54202;DHT22;40108;53.152;5.844;2023-05-10T02:39:22;11.80;98.10
54202;DHT22;40108;53.152;5.844;2023-05-10T02:41:50;11.80;98.10
54202;DHT22;40108;53.152;5.844;2023-05-10T02:44:19;11.80;98.10
54202;DHT22;40108;53.152;5.844;2023-05-10T02:46:45;11.80;98.10
54202;DHT22;40108;53.152;5.844;2023-05-10T02:49:12;11.80;98.10
54202;DHT22;40108;53.152;5.844;2023-05-10T02:51:42;11.80;98.10
54202;DHT22;40108;53.152;5.844;2023-05-10T02:54:12;11.80;98.10
54202;DHT22;40108;53.152;5.844;2023-05-10T02:56:47;11.80;98.10
54202;DHT22;40108;53.152;5.844;2023-05-10T02:59:16;11.80;98.10
54202;DHT22;40108;53.152;5.844;2023-05-10T03:01:41;11.80;98.10
54202;DHT22;40108;53.152;5.844;2023-05-10T03:04:07;11.80;98.10
54202;DHT22;40108;53.152;5.844;2023-05-10T03:06:33;11.80;98.10
54202;DHT22;40108;53.152;5.844;2023-05-10T03:08:59;11.80;98.10
54202;DHT22;40108;53.152;5.844;2023-05-10T03:16:56;11.90;98.20
54202;DHT22;40108;53.152;5.844;2023-05-10T03:19:32;11.90;98.20
54202;DHT22;40108;53.152;5.844;2023-05-10T03:22:00;11.90;98.10
54202;DHT22;40108;53.152;5.844;2023-05-10T03:24:28;11.90;98.10
54202;DHT22;40108;53.152;5.844;2023-05-10T03:26:56;11.80;98.10
54202;DHT22;40108;53.152;5.844;2023-05-10T03:29:25;11.80;98.10
54202;DHT22;40108;53.152;5.844;2023-05-10T03:31:51;11.80;98.10
54202;DHT22;40108;53.152;5.844;2023-05-10T03:34:17;11.80;98.10
54202;DHT22;40108;53.152;5.844;2023-05-10T03:36:48;11.80;98.10
54202;DHT22;40108;53.152;5.844;2023-05-10T03:39:13;11.80;98.10
54202;DHT22;40108;53.152;5.844;2023-05-10T03:41:39;11.80;98.10
54202;DHT22;40108;53.152;5.844;2023-05-10T03:44:05;11.80;98.10
54202;DHT22;40108;53.152;5.844;2023-05-10T03:46:31;11.80;98.20
54202;DHT22;40108;53.152;5.844;2023-05-10T03:48:56;11.80;98.10
54202;DHT22;40108;53.152;5.844;2023-05-10T03:51:22;11.80;98.10
54202;DHT22;40108;53.152;5.844;2023-05-10T03:53:48;11.80;98.20
54202;DHT22;40108;53.152;5.844;2023-05-10T03:56:13;11.80;98.10
54202;DHT22;40108;53.152;5.844;2023-05-10T03:58:39;11.80;98.10
54202;DHT22;40108;53.152;5.844;2023-05-10T04:01:05;11.70;98.20
54202;DHT22;40108;53.152;5.844;2023-05-10T04:03:30;11.80;98.20
54202;DHT22;40108;53.152;5.844;2023-05-10T04:06:00;11.80;98.10
54202;DHT22;40108;53.152;5.844;2023-05-10T04:08:27;11.80;98.20
54202;DHT22;40108;53.152;5.844;2023-05-10T04:10:52;11.70;98.20
54202;DHT22;40108;53.152;5.844;2023-05-10T04:13:18;11.70;98.10
54202;DHT22;40108;53.152;5.844;2023-05-10T04:15:44;11.70;98.20
54202;DHT22;40108;53.152;5.844;2023-05-10T04:18:10;11.70;98.20
54202;DHT22;40108;53.152;5.844;2023-05-10T04:20:35;11.70;98.20
54202;DHT22;40108;53.152;5.844;2023-05-10T04:23:01;11.70;98.20
54202;DHT22;40108;53.152;5.844;2023-05-10T04:25:27;11.70;98.20
54202;DHT22;40108;53.152;5.844;2023-05-10T04:27:52;11.70;98.20
54202;DHT22;40108;53.152;5.844;2023-05-10T04:30:18;11.70;98.20
54202;DHT22;40108;53.152;5.844;2023-05-10T04:32:44;11.70;98.20
54202;DHT22;40108;53.152;5.844;2023-05-10T04:35:10;11.70;98.20
54202;DHT22;40108;53.152;5.844;2023-05-10T04:37:36;11.70;98.20
54202;DHT22;40108;53.152;5.844;2023-05-10T04:40:02;11.70;98.20
54202;DHT22;40108;53.152;5.844;2023-05-10T04:42:28;11.70;98.20
54202;DHT22;40108;53.152;5.844;2023-05-10T04:44:54;11.80;98.20
54202;DHT22;40108;53.152;5.844;2023-05-10T04:47:20;11.70;98.20
54202;DHT22;40108;53.152;5.844;2023-05-10T04:49:46;11.70;98.30
54202;DHT22;40108;53.152;5.844;2023-05-10T04:52:11;11.80;98.30
54202;DHT22;40108;53.152;5.844;2023-05-10T04:54:37;11.80;98.20
54202;DHT22;40108;53.152;5.844;2023-05-10T04:57:03;11.80;98.30
54202;DHT22;40108;53.152;5.844;2023-05-10T04:59:29;11.80;98.30
54202;DHT22;40108;53.152;5.844;2023-05-10T05:01:54;11.80;98.20
54202;DHT22;40108;53.152;5.844;2023-05-10T05:04:20;11.80;98.30
54202;DHT22;40108;53.152;5.844;2023-05-10T05:06:48;11.80;98.30
54202;DHT22;40108;53.152;5.844;2023-05-10T05:09:13;11.80;98.30
54202;DHT22;40108;53.152;5.844;2023-05-10T05:11:39;11.80;98.30
54202;DHT22;40108;53.152;5.844;2023-05-10T05:14:05;11.80;98.30
54202;DHT22;40108;53.152;5.844;2023-05-10T05:16:31;11.80;98.30
54202;DHT22;40108;53.152;5.844;2023-05-10T05:18:57;11.90;98.30
54202;DHT22;40108;53.152;5.844;2023-05-10T05:21:23;11.90;98.30
54202;DHT22;40108;53.152;5.844;2023-05-10T05:23:53;11.80;98.30
54202;DHT22;40108;53.152;5.844;2023-05-10T05:26:21;11.90;98.30
54202;DHT22;40108;53.152;5.844;2023-05-10T05:28:46;11.80;98.30
54202;DHT22;40108;53.152;5.844;2023-05-10T05:31:14;11.90;98.30
54202;DHT22;40108;53.152;5.844;2023-05-10T05:33:39;11.90;98.30
54202;DHT22;40108;53.152;5.844;2023-05-10T05:36:05;11.90;98.30
54202;DHT22;40108;53.152;5.844;2023-05-10T05:38:31;11.90;98.30
54202;DHT22;40108;53.152;5.844;2023-05-10T05:40:57;11.90;98.30
54202;DHT22;40108;53.152;5.844;2023-05-10T05:43:23;11.90;98.30
54202;DHT22;40108;53.152;5.844;2023-05-10T05:45:49;11.90;98.30
54202;DHT22;40108;53.152;5.844;2023-05-10T05:48:15;11.90;98.30
54202;DHT22;40108;53.152;5.844;2023-05-10T05:50:40;11.90;98.30
54202;DHT22;40108;53.152;5.844;2023-05-10T05:53:06;12.00;98.30
54202;DHT22;40108;53.152;5.844;2023-05-10T05:55:32;12.00;98.30
54202;DHT22;40108;53.152;5.844;2023-05-10T05:57:58;12.00;98.30
54202;DHT22;40108;53.152;5.844;2023-05-10T06:00:24;12.00;98.30
54202;DHT22;40108;53.152;5.844;2023-05-10T06:02:49;12.00;98.30
54202;DHT22;40108;53.152;5.844;2023-05-10T06:05:15;12.00;98.30
54202;DHT22;40108;53.152;5.844;2023-05-10T06:07:41;12.10;98.30
54202;DHT22;40108;53.152;5.844;2023-05-10T06:10:09;12.10;98.30
54202;DHT22;40108;53.152;5.844;2023-05-10T06:12:35;12.10;98.30
54202;DHT22;40108;53.152;5.844;2023-05-10T06:15:02;12.10;98.20
54202;DHT22;40108;53.152;5.844;2023-05-10T06:17:28;12.00;98.20
54202;DHT22;40108;53.152;5.844;2023-05-10T06:20:01;12.00;98.20
54202;DHT22;40108;53.152;5.844;2023-05-10T06:22:27;12.10;98.20
54202;DHT22;40108;53.152;5.844;2023-05-10T06:24:55;12.10;98.20
54202;DHT22;40108;53.152;5.844;2023-05-10T06:27:21;12.10;98.20
54202;DHT22;40108;53.152;5.844;2023-05-10T06:29:47;12.10;98.20
54202;DHT22;40108;53.152;5.844;2023-05-10T06:32:13;12.10;98.20
54202;DHT22;40108;53.152;5.844;2023-05-10T06:34:38;12.10;98.20
54202;DHT22;40108;53.152;5.844;2023-05-10T06:37:04;12.10;98.30
54202;DHT22;40108;53.152;5.844;2023-05-10T06:39:30;12.10;98.20
54202;DHT22;40108;53.152;5.844;2023-05-10T06:41:55;12.10;98.20
54202;DHT22;40108;53.152;5.844;2023-05-10T06:44:21;12.10;98.20
54202;DHT22;40108;53.152;5.844;2023-05-10T06:46:47;12.20;98.20
54202;DHT22;40108;53.152;5.844;2023-05-10T06:49:13;12.20;98.20
54202;DHT22;40108;53.152;5.844;2023-05-10T06:51:38;12.20;98.20
54202;DHT22;40108;53.152;5.844;2023-05-10T06:54:05;12.20;98.30
54202;DHT22;40108;53.152;5.844;2023-05-10T06:56:32;12.20;98.20
54202;DHT22;40108;53.152;5.844;2023-05-10T06:58:58;12.20;98.10
54202;DHT22;40108;53.152;5.844;2023-05-10T07:01:23;12.20;98.10
54202;DHT22;40108;53.152;5.844;2023-05-10T07:03:49;12.10;98.10
54202;DHT22;40108;53.152;5.844;2023-05-10T07:06:16;12.10;98.20
54202;DHT22;40108;53.152;5.844;2023-05-10T07:08:41;12.10;98.20
54202;DHT22;40108;53.152;5.844;2023-05-10T07:11:07;12.10;98.20
54202;DHT22;40108;53.152;5.844;2023-05-10T07:13:33;12.10;98.20
54202;DHT22;40108;53.152;5.844;2023-05-10T07:16:00;12.10;98.20
54202;DHT22;40108;53.152;5.844;2023-05-10T07:18:27;12.10;98.20
54202;DHT22;40108;53.152;5.844;2023-05-10T07:20:53;12.10;98.20
54202;DHT22;40108;53.152;5.844;2023-05-10T07:23:19;12.20;98.20
54202;DHT22;40108;53.152;5.844;2023-05-10T07:25:46;12.20;98.20
54202;DHT22;40108;53.152;5.844;2023-05-10T07:28:12;12.20;98.20
54202;DHT22;40108;53.152;5.844;2023-05-10T07:30:38;12.20;98.20
54202;DHT22;40108;53.152;5.844;2023-05-10T07:33:03;12.20;98.20
54202;DHT22;40108;53.152;5.844;2023-05-10T07:35:29;12.20;98.20
54202;DHT22;40108;53.152;5.844;2023-05-10T07:37:55;12.30;98.20
54202;DHT22;40108;53.152;5.844;2023-05-10T07:40:20;12.40;98.30
54202;DHT22;40108;53.152;5.844;2023-05-10T07:42:46;12.40;98.30
54202;DHT22;40108;53.152;5.844;2023-05-10T07:45:12;12.40;98.20
54202;DHT22;40108;53.152;5.844;2023-05-10T07:47:37;12.40;98.20
54202;DHT22;40108;53.152;5.844;2023-05-10T07:50:03;12.40;98.10
54202;DHT22;40108;53.152;5.844;2023-05-10T07:52:29;12.40;98.20
54202;DHT22;40108;53.152;5.844;2023-05-10T07:54:55;12.40;98.10
54202;DHT22;40108;53.152;5.844;2023-05-10T07:57:22;12.40;98.10
54202;DHT22;40108;53.152;5.844;2023-05-10T07:59:48;12.40;98.10
54202;DHT22;40108;53.152;5.844;2023-05-10T08:02:13;12.40;98.10
54202;DHT22;40108;53.152;5.844;2023-05-10T08:04:39;12.50;98.20
54202;DHT22;40108;53.152;5.844;2023-05-10T08:07:05;12.60;98.10
54202;DHT22;40108;53.152;5.844;2023-05-10T08:09:30;12.60;98.20
54202;DHT22;40108;53.152;5.844;2023-05-10T08:11:56;12.70;98.20
54202;DHT22;40108;53.152;5.844;2023-05-10T08:14:22;12.80;98.30
54202;DHT22;40108;53.152;5.844;2023-05-10T08:16:47;12.90;98.30
54202;DHT22;40108;53.152;5.844;2023-05-10T08:19:13;13.10;98.30
54202;DHT22;40108;53.152;5.844;2023-05-10T08:21:39;13.10;98.20
54202;DHT22;40108;53.152;5.844;2023-05-10T08:24:07;13.10;98.10
54202;DHT22;40108;53.152;5.844;2023-05-10T08:26:33;13.10;98.00
54202;DHT22;40108;53.152;5.844;2023-05-10T08:28:59;13.10;97.90
54202;DHT22;40108;53.152;5.844;2023-05-10T08:31:25;13.10;98.00
54202;DHT22;40108;53.152;5.844;2023-05-10T08:33:50;13.10;97.80
54202;DHT22;40108;53.152;5.844;2023-05-10T08:36:18;13.10;97.70
54202;DHT22;40108;53.152;5.844;2023-05-10T08:38:49;13.10;97.60
54202;DHT22;40108;53.152;5.844;2023-05-10T08:41:15;13.10;97.60
54202;DHT22;40108;53.152;5.844;2023-05-10T08:43:41;13.10;97.70
54202;DHT22;40108;53.152;5.844;2023-05-10T08:46:15;13.20;97.60
54202;DHT22;40108;53.152;5.844;2023-05-10T08:48:44;13.20;97.60
54202;DHT22;40108;53.152;5.844;2023-05-10T08:51:13;13.20;97.50
54202;DHT22;40108;53.152;5.844;2023-05-10T08:53:40;13.20;97.50
54202;DHT22;40108;53.152;5.844;2023-05-10T08:56:06;13.30;97.60
54202;DHT22;40108;53.152;5.844;2023-05-10T08:58:32;13.30;97.50
54202;DHT22;40108;53.152;5.844;2023-05-10T09:00:59;13.30;97.40
54202;DHT22;40108;53.152;5.844;2023-05-10T09:03:24;13.40;97.30
54202;DHT22;40108;53.152;5.844;2023-05-10T09:05:50;13.30;97.40
54202;DHT22;40108;53.152;5.844;2023-05-10T09:08:17;13.30;97.20
54202;DHT22;40108;53.152;5.844;2023-05-10T09:10:44;13.40;97.20
54202;DHT22;40108;53.152;5.844;2023-05-10T09:13:11;13.50;97.30
54202;DHT22;40108;53.152;5.844;2023-05-10T09:15:40;13.60;97.30
54202;DHT22;40108;53.152;5.844;2023-05-10T09:18:06;13.60;97.10
54202;DHT22;40108;53.152;5.844;2023-05-10T09:20:32;13.70;97.10
54202;DHT22;40108;53.152;5.844;2023-05-10T09:22:58;13.70;97.10
54202;DHT22;40108;53.152;5.844;2023-05-10T09:25:23;13.70;97.10
54202;DHT22;40108;53.152;5.844;2023-05-10T09:27:49;13.70;96.90
54202;DHT22;40108;53.152;5.844;2023-05-10T09:30:18;13.60;96.80
54202;DHT22;40108;53.152;5.844;2023-05-10T09:32:48;13.60;96.70
54202;DHT22;40108;53.152;5.844;2023-05-10T09:35:16;13.50;96.70
54202;DHT22;40108;53.152;5.844;2023-05-10T09:37:47;13.50;96.70
54202;DHT22;40108;53.152;5.844;2023-05-10T09:40:16;13.60;96.80
54202;DHT22;40108;53.152;5.844;2023-05-10T09:42:50;13.60;96.70
54202;DHT22;40108;53.152;5.844;2023-05-10T09:45:16;13.60;96.80
54202;DHT22;40108;53.152;5.844;2023-05-10T09:47:41;13.70;96.60
54202;DHT22;40108;53.152;5.844;2023-05-10T09:50:07;13.70;96.70
54202;DHT22;40108;53.152;5.844;2023-05-10T09:55:15;13.80;96.80
54202;DHT22;40108;53.152;5.844;2023-05-10T09:57:41;13.80;96.70
54202;DHT22;40108;53.152;5.844;2023-05-10T10:00:08;14.00;96.70
54202;DHT22;40108;53.152;5.844;2023-05-10T10:02:35;13.90;96.40
54202;DHT22;40108;53.152;5.844;2023-05-10T10:05:02;14.00;96.50
54202;DHT22;40108;53.152;5.844;2023-05-10T10:07:29;14.00;96.60
54202;DHT22;40108;53.152;5.844;2023-05-10T10:09:55;14.00;96.30
54202;DHT22;40108;53.152;5.844;2023-05-10T10:12:21;14.10;96.20
54202;DHT22;40108;53.152;5.844;2023-05-10T10:14:50;14.10;96.10
54202;DHT22;40108;53.152;5.844;2023-05-10T10:17:17;14.30;95.90
54202;DHT22;40108;53.152;5.844;2023-05-10T10:19:43;14.20;95.80
54202;DHT22;40108;53.152;5.844;2023-05-10T10:22:10;14.20;95.70
54202;DHT22;40108;53.152;5.844;2023-05-10T10:24:40;14.20;95.40
54202;DHT22;40108;53.152;5.844;2023-05-10T10:27:23;14.10;95.30
54202;DHT22;40108;53.152;5.844;2023-05-10T10:35:21;14.10;95.30
54202;DHT22;40108;53.152;5.844;2023-05-10T10:37:49;14.20;95.20
54202;DHT22;40108;53.152;5.844;2023-05-10T10:40:32;14.20;95.10
54202;DHT22;40108;53.152;5.844;2023-05-10T10:43:26;14.20;95.30
54202;DHT22;40108;53.152;5.844;2023-05-10T10:48:37;14.20;94.70
54202;DHT22;40108;53.152;5.844;2023-05-10T10:51:03;14.20;94.50
54202;DHT22;40108;53.152;5.844;2023-05-10T10:53:29;14.30;94.70
54202;DHT22;40108;53.152;5.844;2023-05-10T10:56:09;14.40;94.80
54202;DHT22;40108;53.152;5.844;2023-05-10T10:58:37;14.50;94.90
54202;DHT22;40108;53.152;5.844;2023-05-10T11:01:14;14.60;94.90
54202;DHT22;40108;53.152;5.844;2023-05-10T11:03:54;14.60;94.50
54202;DHT22;40108;53.152;5.844;2023-05-10T11:06:30;14.60;94.70
54202;DHT22;40108;53.152;5.844;2023-05-10T11:09:00;14.70;94.90
54202;DHT22;40108;53.152;5.844;2023-05-10T11:11:30;14.60;94.30
54202;DHT22;40108;53.152;5.844;2023-05-10T11:14:03;14.80;94.40
54202;DHT22;40108;53.152;5.844;2023-05-10T11:16:43;14.80;94.10
54202;DHT22;40108;53.152;5.844;2023-05-10T11:19:11;14.80;94.10
54202;DHT22;40108;53.152;5.844;2023-05-10T11:24:30;14.70;93.10
54202;DHT22;40108;53.152;5.844;2023-05-10T11:26:56;14.60;92.90
54202;DHT22;40108;53.152;5.844;2023-05-10T11:29:22;14.60;92.80
54202;DHT22;40108;53.152;5.844;2023-05-10T11:31:50;14.50;93.20
54202;DHT22;40108;53.152;5.844;2023-05-10T11:34:26;14.50;93.10
54202;DHT22;40108;53.152;5.844;2023-05-10T11:36:55;14.40;92.80
54202;DHT22;40108;53.152;5.844;2023-05-10T11:39:21;14.40;92.50
54202;DHT22;40108;53.152;5.844;2023-05-10T11:41:50;14.40;92.60
54202;DHT22;40108;53.152;5.844;2023-05-10T11:44:16;14.50;92.30
54202;DHT22;40108;53.152;5.844;2023-05-10T11:46:42;14.50;92.30
54202;DHT22;40108;53.152;5.844;2023-05-10T11:49:08;14.60;92.70
54202;DHT22;40108;53.152;5.844;2023-05-10T11:51:35;14.60;92.90
54202;DHT22;40108;53.152;5.844;2023-05-10T11:54:09;14.70;92.70
54202;DHT22;40108;53.152;5.844;2023-05-10T11:56:36;14.80;92.50
54202;DHT22;40108;53.152;5.844;2023-05-10T11:59:03;14.80;92.20
54202;DHT22;40108;53.152;5.844;2023-05-10T12:01:29;14.90;92.20
54202;DHT22;40108;53.152;5.844;2023-05-10T12:03:57;15.00;92.00
54202;DHT22;40108;53.152;5.844;2023-05-10T12:06:27;15.10;92.10
54202;DHT22;40108;53.152;5.844;2023-05-10T12:08:54;15.30;91.80
54202;DHT22;40108;53.152;5.844;2023-05-10T12:11:20;15.40;91.70
54202;DHT22;40108;53.152;5.844;2023-05-10T12:13:50;15.50;91.00
54202;DHT22;40108;53.152;5.844;2023-05-10T12:16:17;15.60;89.90
54202;DHT22;40108;53.152;5.844;2023-05-10T12:18:43;15.70;89.30
54202;DHT22;40108;53.152;5.844;2023-05-10T12:21:12;15.80;89.80
54202;DHT22;40108;53.152;5.844;2023-05-10T12:23:38;15.80;89.60
54202;DHT22;40108;53.152;5.844;2023-05-10T12:26:05;15.80;89.20
54202;DHT22;40108;53.152;5.844;2023-05-10T12:28:32;15.80;88.70
54202;DHT22;40108;53.152;5.844;2023-05-10T12:30:59;15.70;89.20
54202;DHT22;40108;53.152;5.844;2023-05-10T12:33:25;15.70;88.90
54202;DHT22;40108;53.152;5.844;2023-05-10T12:35:52;15.70;88.50
54202;DHT22;40108;53.152;5.844;2023-05-10T12:40:59;15.60;88.70
54202;DHT22;40108;53.152;5.844;2023-05-10T12:43:25;15.70;89.10
54202;DHT22;40108;53.152;5.844;2023-05-10T12:45:51;15.80;88.90
54202;DHT22;40108;53.152;5.844;2023-05-10T12:48:17;15.90;88.80
54202;DHT22;40108;53.152;5.844;2023-05-10T12:50:43;15.90;87.90
54202;DHT22;40108;53.152;5.844;2023-05-10T12:53:08;15.90;87.30
54202;DHT22;40108;53.152;5.844;2023-05-10T12:55:34;15.90;87.40
54202;DHT22;40108;53.152;5.844;2023-05-10T12:58:00;15.90;87.50
54202;DHT22;40108;53.152;5.844;2023-05-10T13:00:25;15.90;86.90
54202;DHT22;40108;53.152;5.844;2023-05-10T13:02:51;15.80;87.50
54202;DHT22;40108;53.152;5.844;2023-05-10T13:05:17;15.90;88.10
54202;DHT22;40108;53.152;5.844;2023-05-10T13:07:43;15.80;87.30
54202;DHT22;40108;53.152;5.844;2023-05-10T13:10:09;15.90;87.50
54202;DHT22;40108;53.152;5.844;2023-05-10T13:12:36;15.90;87.50
54202;DHT22;40108;53.152;5.844;2023-05-10T13:15:02;16.00;86.90
54202;DHT22;40108;53.152;5.844;2023-05-10T13:17:28;16.00;87.30
54202;DHT22;40108;53.152;5.844;2023-05-10T13:19:54;16.00;87.30
54202;DHT22;40108;53.152;5.844;2023-05-10T13:22:20;16.00;86.80
54202;DHT22;40108;53.152;5.844;2023-05-10T13:24:46;15.90;86.80
54202;DHT22;40108;53.152;5.844;2023-05-10T13:27:11;15.90;86.20
54202;DHT22;40108;53.152;5.844;2023-05-10T13:29:37;15.80;85.60
54202;DHT22;40108;53.152;5.844;2023-05-10T13:32:03;15.70;86.00
54202;DHT22;40108;53.152;5.844;2023-05-10T13:34:29;15.60;86.50
54202;DHT22;40108;53.152;5.844;2023-05-10T13:36:54;15.70;85.80
54202;DHT22;40108;53.152;5.844;2023-05-10T13:39:21;15.60;85.00
54202;DHT22;40108;53.152;5.844;2023-05-10T13:41:47;15.60;86.60
54202;DHT22;40108;53.152;5.844;2023-05-10T13:44:14;15.70;87.20
54202;DHT22;40108;53.152;5.844;2023-05-10T13:46:41;15.70;86.70
54202;DHT22;40108;53.152;5.844;2023-05-10T13:49:09;15.70;86.70
54202;DHT22;40108;53.152;5.844;2023-05-10T13:51:35;15.70;87.00
54202;DHT22;40108;53.152;5.844;2023-05-10T13:54:04;15.70;87.50
54202;DHT22;40108;53.152;5.844;2023-05-10T13:56:30;15.70;87.70
54202;DHT22;40108;53.152;5.844;2023-05-10T13:58:57;15.60;87.90
54202;DHT22;40108;53.152;5.844;2023-05-10T14:01:23;15.50;87.90
54202;DHT22;40108;53.152;5.844;2023-05-10T14:03:49;15.40;88.10
54202;DHT22;40108;53.152;5.844;2023-05-10T14:06:15;15.40;88.10
54202;DHT22;40108;53.152;5.844;2023-05-10T14:08:41;15.30;88.40
54202;DHT22;40108;53.152;5.844;2023-05-10T14:11:07;15.30;88.60
54202;DHT22;40108;53.152;5.844;2023-05-10T14:13:33;15.20;88.50
54202;DHT22;40108;53.152;5.844;2023-05-10T14:15:58;15.20;88.60
54202;DHT22;40108;53.152;5.844;2023-05-10T14:18:26;15.20;88.80
54202;DHT22;40108;53.152;5.844;2023-05-10T14:20:52;15.20;88.80
54202;DHT22;40108;53.152;5.844;2023-05-10T14:23:18;15.20;88.80
54202;DHT22;40108;53.152;5.844;2023-05-10T14:25:50;15.30;88.80
54202;DHT22;40108;53.152;5.844;2023-05-10T14:28:16;15.30;88.70
54202;DHT22;40108;53.152;5.844;2023-05-10T14:30:43;15.30;88.40
54202;DHT22;40108;53.152;5.844;2023-05-10T14:33:09;15.40;88.30
54202;DHT22;40108;53.152;5.844;2023-05-10T14:35:35;15.50;88.10
54202;DHT22;40108;53.152;5.844;2023-05-10T14:38:02;15.50;88.10
54202;DHT22;40108;53.152;5.844;2023-05-10T14:40:29;15.60;88.40
54202;DHT22;40108;53.152;5.844;2023-05-10T14:42:55;15.70;88.70
54202;DHT22;40108;53.152;5.844;2023-05-10T14:45:22;15.80;88.00
54202;DHT22;40108;53.152;5.844;2023-05-10T14:47:49;15.80;87.70
54202;DHT22;40108;53.152;5.844;2023-05-10T14:50:14;15.90;87.90
54202;DHT22;40108;53.152;5.844;2023-05-10T14:52:42;16.00;88.00
54202;DHT22;40108;53.152;5.844;2023-05-10T14:55:08;16.10;88.10
54202;DHT22;40108;53.152;5.844;2023-05-10T14:57:34;16.20;87.80
54202;DHT22;40108;53.152;5.844;2023-05-10T15:00:00;16.20;86.70
54202;DHT22;40108;53.152;5.844;2023-05-10T15:02:26;16.20;87.10
54202;DHT22;40108;53.152;5.844;2023-05-10T15:04:51;16.20;87.40
54202;DHT22;40108;53.152;5.844;2023-05-10T15:07:17;16.20;87.10
54202;DHT22;40108;53.152;5.844;2023-05-10T15:09:44;16.10;87.10
54202;DHT22;40108;53.152;5.844;2023-05-10T15:12:10;16.10;86.50
54202;DHT22;40108;53.152;5.844;2023-05-10T15:14:36;16.00;86.70
54202;DHT22;40108;53.152;5.844;2023-05-10T15:17:02;15.90;86.10
54202;DHT22;40108;53.152;5.844;2023-05-10T15:19:28;15.90;86.90
54202;DHT22;40108;53.152;5.844;2023-05-10T15:21:54;15.90;87.00
54202;DHT22;40108;53.152;5.844;2023-05-10T15:24:21;15.80;86.20
54202;DHT22;40108;53.152;5.844;2023-05-10T15:26:47;15.70;86.40
54202;DHT22;40108;53.152;5.844;2023-05-10T15:29:13;15.60;86.50
54202;DHT22;40108;53.152;5.844;2023-05-10T15:31:48;15.60;86.90
54202;DHT22;40108;53.152;5.844;2023-05-10T15:34:15;15.50;86.20
54202;DHT22;40108;53.152;5.844;2023-05-10T15:36:41;15.40;86.00
54202;DHT22;40108;53.152;5.844;2023-05-10T15:39:07;15.40;86.60
54202;DHT22;40108;53.152;5.844;2023-05-10T15:41:35;15.30;86.10
54202;DHT22;40108;53.152;5.844;2023-05-10T15:44:01;15.20;86.50
54202;DHT22;40108;53.152;5.844;2023-05-10T15:46:27;15.10;86.50
54202;DHT22;40108;53.152;5.844;2023-05-10T15:48:53;15.10;86.50
54202;DHT22;40108;53.152;5.844;2023-05-10T15:51:19;15.10;86.70
54202;DHT22;40108;53.152;5.844;2023-05-10T15:53:45;15.00;86.20
54202;DHT22;40108;53.152;5.844;2023-05-10T15:56:11;14.90;86.70
54202;DHT22;40108;53.152;5.844;2023-05-10T15:58:40;14.90;87.40
54202;DHT22;40108;53.152;5.844;2023-05-10T16:01:06;14.90;87.50